Map

Track Data

SID SEASON NUMBER BASIN SUBBASIN NAME ISO_TIME NATURE LAT LON WMO_WIND WMO_PRES WMO_AGENCY TRACK_TYPE DIST2LAND LANDFALL IFLAG USA_AGENCY USA_ATCF_ID USA_LAT USA_LON USA_RECORD USA_STATUS USA_WIND USA_PRES USA_SSHS USA_R34_NE USA_R34_SE USA_R34_SW USA_R34_NW USA_R50_NE USA_R50_SE USA_R50_SW USA_R50_NW USA_R64_NE USA_R64_SE USA_R64_SW USA_R64_NW USA_POCI USA_ROCI USA_RMW USA_EYE TOKYO_LAT TOKYO_LON TOKYO_GRADE TOKYO_WIND TOKYO_PRES TOKYO_R50_DIR TOKYO_R50_LONG TOKYO_R50_SHORT TOKYO_R30_DIR TOKYO_R30_LONG TOKYO_R30_SHORT TOKYO_LAND CMA_LAT CMA_LON CMA_CAT CMA_WIND CMA_PRES HKO_LAT HKO_LON HKO_CAT HKO_WIND HKO_PRES NEWDELHI_LAT NEWDELHI_LON NEWDELHI_GRADE NEWDELHI_WIND NEWDELHI_PRES NEWDELHI_CI NEWDELHI_DP NEWDELHI_POCI REUNION_LAT REUNION_LON REUNION_TYPE REUNION_WIND REUNION_PRES REUNION_TNUM REUNION_CI REUNION_RMW REUNION_R34_NE REUNION_R34_SE REUNION_R34_SW REUNION_R34_NW REUNION_R50_NE REUNION_R50_SE REUNION_R50_SW REUNION_R50_NW REUNION_R64_NE REUNION_R64_SE REUNION_R64_SW REUNION_R64_NW BOM_LAT BOM_LON BOM_TYPE BOM_WIND BOM_PRES BOM_TNUM BOM_CI BOM_RMW BOM_R34_NE BOM_R34_SE BOM_R34_SW BOM_R34_NW BOM_R50_NE BOM_R50_SE BOM_R50_SW BOM_R50_NW BOM_R64_NE BOM_R64_SE BOM_R64_SW BOM_R64_NW BOM_ROCI BOM_POCI BOM_EYE BOM_POS_METHOD BOM_PRES_METHOD NADI_LAT NADI_LON NADI_CAT NADI_WIND NADI_PRES WELLINGTON_LAT WELLINGTON_LON WELLINGTON_WIND WELLINGTON_PRES DS824_LAT DS824_LON DS824_STAGE DS824_WIND DS824_PRES TD9636_LAT TD9636_LON TD9636_STAGE TD9636_WIND TD9636_PRES TD9635_LAT TD9635_LON TD9635_WIND TD9635_PRES TD9635_ROCI NEUMANN_LAT NEUMANN_LON NEUMANN_CLASS NEUMANN_WIND NEUMANN_PRES MLC_LAT MLC_LON MLC_CLASS MLC_WIND MLC_PRES USA_GUST BOM_GUST BOM_GUST_PER REUNION_GUST REUNION_GUST_PER USA_SEAHGT USA_SEARAD_NE USA_SEARAD_SE USA_SEARAD_SW USA_SEARAD_NW STORM_SPEED STORM_DIR
1984332N08086 1984 115 NI BB NOT_NAMED 1984-11-27 06:00:00 NR 8.40000 85.8000 main 449 439 O_________O___ jtwc_io IO041984 8.40000 85.8000 25 -1 8.40000 85.8000 1 25 4 304
1984332N08086 1984 115 NI BB NOT_NAMED 1984-11-27 09:00:00 NR 8.50129 85.6513 main 441 422 P_________P___ IO041984 8.50001 85.6500 25 -1 8.50256 85.6526 1 25 4 304
1984332N08086 1984 115 NI BB NOT_NAMED 1984-11-27 12:00:00 NR 8.60000 85.5000 main 422 412 O_________O___ jtwc_io IO041984 8.60000 85.5000 25 -1 8.60000 85.5000 1 25 4 302
1984332N08086 1984 115 NI BB NOT_NAMED 1984-11-27 15:00:00 NR 8.69489 85.3449 main 404 397 P_________P___ IO041984 8.69999 85.3500 27 -1 8.68978 85.3398 1 26 4 302
1984332N08086 1984 115 NI BB NOT_NAMED 1984-11-27 18:00:00 NR 8.78978 85.1898 main 397 381 O_________P___ jtwc_io IO041984 8.80000 85.2000 30 -1 8.77957 85.1795 1 27 4 302
1984332N08086 1984 115 NI BB NOT_NAMED 1984-11-27 21:00:00 NR 8.88603 85.0360 main 381 375 P_________P___ IO041984 8.89250 85.0425 30 -1 8.87956 85.0295 1 28 4 306
1984332N08086 1984 115 NI BB NOT_NAMED 1984-11-28 00:00:00 NR 9.00000 84.9000 main 375 370 O_________O___ jtwc_io IO041984 9.00000 84.9000 30 -1 9.00000 84.9000 1 30 4 316
1984332N08086 1984 115 NI BB NOT_NAMED 1984-11-28 03:00:00 NR 9.14623 84.7780 main 370 366 P_________P___ IO041984 9.13500 84.7850 32 -1 9.15747 84.7710 1 32 4 326
1984332N08086 1984 115 NI BB NOT_NAMED 1984-11-28 06:00:00 NR 9.31748 84.6838 main 370 365 O_________P___ jtwc_io IO041984 9.30000 84.7000 35 0 9.33496 84.6676 1 35 4 336
1984332N08086 1984 115 NI BB NOT_NAMED 1984-11-28 09:00:00 NR 9.50248 84.6165 main 370 370 P_________P___ IO041984 9.48500 84.6275 37 0 9.51996 84.6054 1 37 4 349
1984332N08086 1984 115 NI BB NOT_NAMED 1984-11-28 12:00:00 NR 9.70000 84.6000 main 380 380 O_________O___ jtwc_io IO041984 9.70000 84.6000 40 0 9.70000 84.6000 2 40 4 2
1984332N08086 1984 115 NI BB NOT_NAMED 1984-11-28 15:00:00 NR 9.93922 84.6399 main 389 389 P_________P___ IO041984 9.97248 84.6125 40 0 9.90595 84.6673 2 41 5 18
1984332N08086 1984 115 NI BB NOT_NAMED 1984-11-28 18:00:00 NR 10.1488 84.7448 main 409 409 O_________P___ jtwc_io IO041984 10.2000 84.7000 40 0 10.0975 84.7897 2 42 4 39
1984332N08086 1984 115 NI BB NOT_NAMED 1984-11-28 21:00:00 NR 10.2677 84.9136 main 439 439 P_________P___ IO041984 10.2950 84.8850 42 0 10.2403 84.9423 2 43 4 67
1984332N08086 1984 115 NI BB NOT_NAMED 1984-11-29 00:00:00 NR 10.3000 85.1000 main 458 458 O_________O___ jtwc_io IO041984 10.3000 85.1000 45 0 10.3000 85.1000 2 45 4 92
1984332N08086 1984 115 NI BB NOT_NAMED 1984-11-29 03:00:00 NR 10.2575 85.2695 main 478 473 P_________P___ IO041984 10.2950 85.2650 45 0 10.2200 85.2740 2 46 4 119
1984332N08086 1984 115 NI BB NOT_NAMED 1984-11-29 06:00:00 NR 10.1300 85.4202 main 478 478 O_________P___ jtwc_io IO041984 10.2000 85.4000 45 0 10.0600 85.4404 2 47 4 140
1984332N08086 1984 115 NI BB NOT_NAMED 1984-11-29 09:00:00 NR 9.92124 85.5533 main 488 479 P_________P___ IO041984 9.97249 85.5451 47 0 9.86998 85.5615 2 48 5 158
1984332N08086 1984 115 NI BB NOT_NAMED 1984-11-29 12:00:00 NR 9.70000 85.6000 main 479 459 O_________O___ jtwc_io IO041984 9.70000 85.6000 50 0 9.70000 85.6000 2 50 4 186
1984332N08086 1984 115 NI BB NOT_NAMED 1984-11-29 15:00:00 NR 9.51406 85.5090 main 459 434 P_________P___ IO041984 9.44750 85.4949 50 0 9.58061 85.5232 2 51 4 221
1984332N08086 1984 115 NI BB NOT_NAMED 1984-11-29 18:00:00 NR 9.39749 85.3311 main 434 415 O_________P___ jtwc_io IO041984 9.30000 85.3000 50 0 9.49499 85.3621 2 52 4 253
1984332N08086 1984 115 NI BB NOT_NAMED 1984-11-29 21:00:00 NR 9.40093 85.1263 main 415 399 P_________P___ IO041984 9.34000 85.1075 52 0 9.46187 85.1450 2 53 4 284
1984332N08086 1984 115 NI BB NOT_NAMED 1984-11-30 00:00:00 NR 9.50000 84.9000 main 399 385 O_________O___ jtwc_io IO041984 9.50000 84.9000 55 0 9.50000 84.9000 2 55 5 303
1984332N08086 1984 115 NI BB NOT_NAMED 1984-11-30 03:00:00 NR 9.66659 84.7116 main 390 375 P_________P___ IO041984 9.68496 84.7150 57 0 9.64822 84.7083 2 57 6 314
1984332N08086 1984 115 NI BB NOT_NAMED 1984-11-30 06:00:00 NR 9.88106 84.4951 main 379 365 O_________P___ jtwc_io IO041984 9.90000 84.5000 60 0 9.86212 84.4902 2 60 6 313
1984332N08086 1984 115 NI BB NOT_NAMED 1984-11-30 09:00:00 NR 10.1049 84.2360 main 361 346 P_________P___ IO041984 10.1149 84.2450 62 0 10.0950 84.2270 2 62 7 306
1984332N08086 1984 115 NI BB NOT_NAMED 1984-11-30 12:00:00 NR 10.3000 83.9000 main 346 316 O_________O___ jtwc_io IO041984 10.3000 83.9000 65 1 10.3000 83.9000 4 65 8 291
1984332N08086 1984 115 NI BB NOT_NAMED 1984-11-30 15:00:00 NR 10.4004 83.4699 main 316 276 P_________P___ IO041984 10.4226 83.4225 65 1 10.3783 83.5174 4 66 9 280
1984332N08086 1984 115 NI BB NOT_NAMED 1984-11-30 18:00:00 NR 10.4636 82.9844 main 276 229 O_________P___ jtwc_io IO041984 10.5000 82.9000 65 1 10.4272 83.0688 4 67 9 277
1984332N08086 1984 115 NI BB NOT_NAMED 1984-11-30 21:00:00 NR 10.5186 82.5166 main 229 196 P_________P___ IO041984 10.5498 82.4724 67 1 10.4875 82.5609 4 68 10 278
1984332N08086 1984 115 NI BB NOT_NAMED 1984-12-01 00:00:00 NR 10.6000 82.0000 main 196 164 O_________O___ jtwc_io IO041984 10.6000 82.0000 70 1 10.6000 82.0000 4 70 11 282
1984332N08086 1984 115 NI BB NOT_NAMED 1984-12-01 03:00:00 NR 10.7489 81.4046 main 164 98 P_________P___ IO041984 10.6400 81.3796 72 1 10.8577 81.4295 4 68 13 287
1984332N08086 1984 115 NI BB NOT_NAMED 1984-12-01 06:00:00 NR 10.9822 80.7531 main 98 24 O_________P___ jtwc_io IO041984 10.8000 80.7000 75 1 11.1643 80.8061 4 67 14 295
1984332N08086 1984 115 NI BB NOT_NAMED 1984-12-01 09:00:00 NR 11.3530 80.1012 main 31 0 P_________P___ IO041984 11.2422 80.0729 70 1 11.4637 80.1296 4 66 15 298
1984332N08086 1984 115 NI BB NOT_NAMED 1984-12-01 12:00:00 NR 11.7000 79.4000 main 0 0 O_________O___ jtwc_io IO041984 11.7000 79.4000 65 1 11.7000 79.4000 4 65 15 290
1984332N08086 1984 115 NI BB NOT_NAMED 1984-12-01 15:00:00 NR 11.8808 78.6275 main 0 0 P_________P___ IO041984 11.9324 78.6300 47 0 11.8293 78.6251 4 53 16 279
1984332N08086 1984 115 NI AS NOT_NAMED 1984-12-01 18:00:00 NR 11.9424 77.8011 main 0 0 O_________P___ jtwc_io IO041984 12.0000 77.8000 30 -1 11.8849 77.8023 4 42 16 271
1984332N08086 1984 115 NI AS NOT_NAMED 1984-12-01 21:00:00 NR 11.9126 76.9554 main 0 0 P_________P___ IO041984 11.9523 76.9573 25 -1 11.8729 76.9534 4 31 17 265
1984332N08086 1984 115 NI AS NOT_NAMED 1984-12-02 00:00:00 NR 11.8000 76.1000 main 0 0 O_________O___ jtwc_io IO041984 11.8000 76.1000 20 -1 11.8000 76.1000 1 20 17 261
1984332N08086 1984 115 NI AS NOT_NAMED 1984-12-02 03:00:00 NR 11.6345 75.2522 main 24 24 P_________P___ IO041984 11.6073 75.2424 20 -1 11.6617 75.2619 1 20 17 258
1984332N08086 1984 115 NI AS NOT_NAMED 1984-12-02 06:00:00 NR 11.4360 74.4131 main 110 110 O_________P___ jtwc_io IO041984 11.4000 74.4000 20 -1 11.4719 74.4262 1 20 17 257
1984332N08086 1984 115 NI AS NOT_NAMED 1984-12-02 09:00:00 NR 11.2492 73.6013 main 196 196 P_________P___ IO041984 11.2272 73.6001 20 -1 11.2712 73.6025 1 20 16 258
1984332N08086 1984 115 NI AS NOT_NAMED 1984-12-02 12:00:00 NR 11.1000 72.8000 main 279 279 O_________O___ jtwc_io IO041984 11.1000 72.8000 20 -1 11.1000 72.8000 1 20 16 262
1984332N08086 1984 115 NI AS NOT_NAMED 1984-12-02 15:00:00 NR 11.0224 71.9622 main 362 362 P_________P___ IO041984 11.0351 71.9277 22 -1 11.0097 71.9967 1 22 16 266
1984332N08086 1984 115 NI AS NOT_NAMED 1984-12-02 18:00:00 NR 10.9774 71.1592 main 440 440 O_________P___ jtwc_io IO041984 11.0000 71.1000 25 -1 10.9547 71.2184 1 25 15 267
1984332N08086 1984 115 NI AS NOT_NAMED 1984-12-02 21:00:00 NR 10.9323 70.4467 main 524 524 P_________P___ IO041984 10.9422 70.4125 27 -1 10.9224 70.4808 1 27 13 267
1984332N08086 1984 115 NI AS NOT_NAMED 1984-12-03 00:00:00 NR 10.9000 69.8000 main 584 584 O_________O___ jtwc_io IO041984 10.9000 69.8000 30 -1 10.9000 69.8000 1 30 12 268
1984332N08086 1984 115 NI AS NOT_NAMED 1984-12-03 03:00:00 NR 10.8875 69.1832 main 645 645 P_________P___ IO041984 10.8999 69.1776 30 -1 10.8751 69.1888 1 30 12 269
1984332N08086 1984 115 NI AS NOT_NAMED 1984-12-03 06:00:00 NR 10.8782 68.6165 main 707 707 O_________P___ jtwc_io IO041984 10.9000 68.6000 30 -1 10.8565 68.6330 1 30 11 268
1984332N08086 1984 115 NI AS NOT_NAMED 1984-12-03 09:00:00 NR 10.8460 68.1016 main 763 763 P_________P___ IO041984 10.8573 68.0925 30 -1 10.8346 68.1106 1 30 10 266
1984332N08086 1984 115 NI AS NOT_NAMED 1984-12-03 12:00:00 NR 10.8000 67.6000 main 815 815 O_________O___ jtwc_io IO041984 10.8000 67.6000 30 -1 10.8000 67.6000 1 30 10 265
1984332N08086 1984 115 NI AS NOT_NAMED 1984-12-03 15:00:00 NR 10.7503 67.0610 main 868 868 P_________P___ IO041984 10.7575 67.0500 32 -1 10.7431 67.0719 1 32 11 264
1984332N08086 1984 115 NI AS NOT_NAMED 1984-12-03 18:00:00 NR 10.6860 66.5250 main 934 934 O_________P___ jtwc_io IO041984 10.7000 66.5000 35 0 10.6720 66.5500 1 35 10 262
1984332N08086 1984 115 NI AS NOT_NAMED 1984-12-03 21:00:00 NR 10.5986 66.0178 main 989 989 P_________P___ IO041984 10.6073 66.0075 37 0 10.5899 66.0282 1 37 10 260
1984332N08086 1984 115 NI AS NOT_NAMED 1984-12-04 00:00:00 NR 10.5000 65.5000 main 1045 1045 O_________O___ jtwc_io IO041984 10.5000 65.5000 40 0 10.5000 65.5000 2 40 11 260
1984332N08086 1984 115 NI AS NOT_NAMED 1984-12-04 03:00:00 NR 10.4034 64.9347 main 1109 1109 P_________P___ IO041984 10.4000 64.9000 42 0 10.4068 64.9694 2 42 11 260
1984332N08086 1984 115 NI AS NOT_NAMED 1984-12-04 06:00:00 NR 10.3035 64.3650 main 1109 1059 O_________P___ jtwc_io IO041984 10.3000 64.3000 45 0 10.3070 64.4300 2 45 11 259
1984332N08086 1984 115 NI AS NOT_NAMED 1984-12-04 09:00:00 NR 10.1980 63.8341 main 1049 999 P_________P___ IO041984 10.1923 63.7925 47 0 10.2036 63.8757 2 47 11 259
1984332N08086 1984 115 NI AS NOT_NAMED 1984-12-04 12:00:00 NR 10.1000 63.3000 main 999 951 O_________O___ jtwc_io IO041984 10.1000 63.3000 50 0 10.1000 63.3000 2 50 11 262
1984332N08086 1984 115 NI AS NOT_NAMED 1984-12-04 15:00:00 NR 10.0405 62.7548 main 951 889 P_________P___ IO041984 10.0573 62.7801 52 0 10.0237 62.7294 2 51 11 263
1984332N08086 1984 115 NI AS NOT_NAMED 1984-12-04 18:00:00 NR 9.97201 62.1665 main 889 831 O_________P___ jtwc_io IO041984 10.0000 62.2000 55 0 9.94402 62.1331 2 52 12 262
1984332N08086 1984 115 NI AS NOT_NAMED 1984-12-04 21:00:00 NR 9.86110 61.5164 main 821 760 P_________P___ IO041984 9.87988 61.5375 55 0 9.84232 61.4952 2 53 14 259
1984332N08086 1984 115 NI AS NOT_NAMED 1984-12-05 00:00:00 NR 9.70000 60.8000 main 760 703 O_________O___ jtwc_io IO041984 9.70000 60.8000 55 0 9.70000 60.8000 2 55 15 255
1984332N08086 1984 115 NI AS NOT_NAMED 1984-12-05 03:00:00 NR 9.47101 60.0191 main 693 639 P_________P___ IO041984 9.46486 60.0225 57 0 9.47716 60.0156 2 56 17 253
1984332N08086 1984 115 NI AS NOT_NAMED 1984-12-05 06:00:00 NR 9.20770 59.1895 main 639 586 O_________P___ jtwc_io IO041984 9.20000 59.2000 60 0 9.21539 59.1791 2 57 17 252
1984332N08086 1984 115 NI AS NOT_NAMED 1984-12-05 09:00:00 NR 8.94788 58.3391 main 586 546 P_________P___ IO041984 8.94991 58.3501 60 0 8.94584 58.3281 2 58 17 253
1984332N08086 1984 115 NI AS NOT_NAMED 1984-12-05 12:00:00 NR 8.70000 57.5000 main 546 518 O_________O___ jtwc_io IO041984 8.70000 57.5000 60 0 8.70000 57.5000 2 60 17 253
1984332N08086 1984 115 NI AS NOT_NAMED 1984-12-05 15:00:00 NR 8.45825 56.6921 main 518 498 P_________P___ IO041984 8.41992 56.6700 60 0 8.49659 56.7142 2 60 16 254
1984332N08086 1984 115 NI AS NOT_NAMED 1984-12-05 18:00:00 NR 8.26237 55.9302 main 493 480 O_________P___ jtwc_io IO041984 8.20000 55.9000 60 0 8.32473 55.9605 2 60 15 258
1984332N08086 1984 115 NI AS NOT_NAMED 1984-12-05 21:00:00 NR 8.15142 55.2321 main 477 435 P_________P___ IO041984 8.11235 55.2127 60 0 8.19049 55.2515 2 60 13 263
1984332N08086 1984 115 NI AS NOT_NAMED 1984-12-06 00:00:00 NR 8.10000 54.6000 main 435 380 O_________O___ jtwc_io IO041984 8.10000 54.6000 60 0 8.10000 54.6000 2 60 12 266
1984332N08086 1984 115 NI AS NOT_NAMED 1984-12-06 03:00:00 NR 8.07642 54.0147 main 380 330 P_________P___ IO041984 8.09239 54.0275 60 0 8.06045 54.0018 2 60 11 269
1984332N08086 1984 115 NI AS NOT_NAMED 1984-12-06 06:00:00 NR 8.08096 53.4803 main 330 281 O_________P___ jtwc_io IO041984 8.10000 53.5000 60 0 8.06193 53.4607 2 60 10 271
1984332N08086 1984 115 NI AS NOT_NAMED 1984-12-06 09:00:00 NR 8.09118 52.9783 main 281 233 P_________P___ IO041984 8.09991 52.9925 60 0 8.08246 52.9642 2 60 10 271
1984332N08086 1984 115 NI AS NOT_NAMED 1984-12-06 12:00:00 NR 8.10000 52.5000 main 233 188 O_________O___ jtwc_io IO041984 8.10000 52.5000 60 0 8.10000 52.5000 2 60 10 271
1984332N08086 1984 115 NI AS NOT_NAMED 1984-12-06 15:00:00 NR 8.11300 52.0100 main 188 157 P_________P___ IO041984 8.10751 51.9775 57 0 8.11848 52.0424 2 57 9 271
1984332N08086 1984 115 NI AS NOT_NAMED 1984-12-06 18:00:00 NR 8.11233 51.5564 main 157 118 O_________P___ jtwc_io IO041984 8.10000 51.5000 55 0 8.12466 51.6129 2 55 8 268
1984332N08086 1984 115 NI AS NOT_NAMED 1984-12-06 21:00:00 NR 8.07923 51.1572 main 118 80 P_________P___ IO041984 8.06494 51.1125 52 0 8.09352 51.2019 2 52 8 261
1984332N08086 1984 115 NI AS NOT_NAMED 1984-12-07 00:00:00 NR 8.00000 50.8000 main 80 55 O_________O___ jtwc_io IO041984 8.00000 50.8000 50 0 8.00000 50.8000 2 50 7 255
1984332N08086 1984 115 NI AS NOT_NAMED 1984-12-07 03:00:00 NR 7.90376 50.4824 main 55 39 P_________P___ IO041984 7.95234 50.5802 42 0 7.85517 50.3847 2 45 7 247
1984332N08086 1984 115 NI AS NOT_NAMED 1984-12-07 06:00:00 NR 7.72116 50.1388 main 33 11 O_________P___ jtwc_io IO041984 7.80000 50.3000 35 0 7.64232 49.9775 2 40 9 239
1984332N08086 1984 115 NI AS NOT_NAMED 1984-12-07 09:00:00 NR 7.42046 49.6808 main 11 0 P_________P___ IO041984 7.48260 49.7799 32 -1 7.35831 49.5816 2 35 12 232
1984332N08086 1984 115 NI AS NOT_NAMED 1984-12-07 12:00:00 NR 7.00000 49.2000 main 0 0 O_________O___ jtwc_io IO041984 7.00000 49.2000 30 -1 7.00000 49.2000 1 30 14 222
1984332N08086 1984 115 NI AS NOT_NAMED 1984-12-07 15:00:00 NR 6.41650 48.7761 main 0 0 P_________P___ IO041984 6.34249 48.7049 27 -1 6.49051 48.8473 1 27 14 214
1984332N08086 1984 115 NI AS NOT_NAMED 1984-12-07 18:00:00 NR 5.81242 48.4033 main 0 0 O_________P___ jtwc_io IO041984 5.70000 48.3000 25 -1 5.92484 48.5065 1 25 13 212
1984332N08086 1984 115 NI AS NOT_NAMED 1984-12-07 21:00:00 NR 5.33584 48.1026 main 0 0 P_________P___ IO041984 5.27493 48.0427 22 -1 5.39676 48.1626 1 22 10 216
1984332N08086 1984 115 NI AS NOT_NAMED 1984-12-08 00:00:00 NR 5.00000 47.8000 main 0 0 O_________O___ jtwc_io IO041984 5.00000 47.8000 20 -1 5.00000 47.8000 1 20 9 232
1984332N08086 1984 115 NI AS NOT_NAMED 1984-12-08 03:00:00 NR 4.80946 47.4243 main 0 0 P_________P___ IO041984 4.82509 47.4399 17 -1 4.79383 47.4086 1 17 9 249
1984332N08086 1984 115 NI AS NOT_NAMED 1984-12-08 06:00:00 NR 4.70000 47.0000 main 0 O_________O___ jtwc_io IO041984 4.70000 47.0000 15 -1 4.70000 47.0000 1 15 9 255

About IBTrACS Database

This database is a web-friendly format of International Best Track Archive for Climate Stewardship (IBTrACS), a global best track data archive curated by NOAA dating back to 1842.

Updated: 2021-10-08